Time;durP1;ratioP1;P1;durP2;ratioP2;P2;SDS_P1;SDS_P2;PMS_P1;PMS_P2;Temp;Humidity;BMP_temperature;BMP_pressure;BME280_temperature;BME280_humidity;BME280_pressure;Samples;Min_cycle;Max_cycle;Signal;HPM_P1;HPM_P2
2023/06/15 00:01:02;;;;;;;6.30;2.85;;;;;;;11.45;100.00;101517.94;5054883;28;21323;-87
2023/06/15 00:03:31;;;;;;;9.50;3.73;;;;;;;11.40;100.00;101521.94;5049611;28;20116;-87
2023/06/15 00:05:56;;;;;;;5.53;3.25;;;;;;;11.26;100.00;101502.84;5051174;28;20525;-87
2023/06/15 00:08:22;;;;;;;6.90;2.60;;;;;;;11.34;100.00;101519.84;5048309;28;20111;-86
2023/06/15 00:10:48;;;;;;;4.05;3.08;;;;;;;11.15;100.00;101490.56;5060828;28;20482;-87
2023/06/15 00:13:14;;;;;;;5.40;3.08;;;;;;;11.12;100.00;101474.78;5048372;28;20031;-87
2023/06/15 00:15:39;;;;;;;;;;;;;;;11.34;100.00;101505.66;5048496;28;20025;-86
2023/06/15 00:18:05;;;;;;;;;;;;;;;11.34;100.00;101514.50;5036309;28;19962;-86
2023/06/15 00:20:34;;;;;;;5.27;3.43;;;;;;;11.10;100.00;101469.63;5050607;28;19969;-86
2023/06/15 00:23:00;;;;;;;6.28;2.50;;;;;;;11.20;100.00;101493.63;5020522;23;20313;-77
2023/06/15 00:25:25;;;;;;;4.85;3.25;;;;;;;11.17;100.00;101518.81;5016496;28;20034;-77
2023/06/15 00:27:51;;;;;;;5.27;2.90;;;;;;;11.20;100.00;101528.38;5026530;28;20030;-76
2023/06/15 00:30:18;;;;;;;4.67;3.03;;;;;;;11.25;100.00;101522.56;5006825;28;20030;-76
2023/06/15 00:32:43;;;;;;;5.80;2.90;;;;;;;11.13;100.00;101509.41;5008316;28;20287;-78
2023/06/15 00:35:09;;;;;;;8.03;3.27;;;;;;;11.18;100.00;101517.81;4999969;28;20034;-78
2023/06/15 00:37:35;;;;;;;9.32;3.35;;;;;;;11.18;100.00;101507.13;5000034;28;20026;-76
2023/06/15 00:42:30;;;;;;;;;;;;;;;11.17;100.00;101493.91;4988861;28;20043;-75
2023/06/15 00:44:56;;;;;;;4.95;3.17;;;;;;;11.12;100.00;101498.84;4990378;28;19909;-75
2023/06/15 00:47:21;;;;;;;5.97;3.25;;;;;;;11.11;100.00;101499.84;4973246;28;20032;-75
2023/06/15 00:49:48;;;;;;;6.68;3.67;;;;;;;11.10;100.00;101509.69;4990550;28;20398;-75
2023/06/15 00:52:14;;;;;;;;;;;;;;;11.06;100.00;101499.44;4973257;28;20177;-75
2023/06/15 00:54:40;;;;;;;6.13;3.42;;;;;;;11.03;100.00;101513.09;4977307;28;19921;-75
2023/06/15 00:57:14;;;;;;;3.92;2.90;;;;;;;11.02;100.00;101511.41;4989012;28;20034;-76
2023/06/15 00:59:41;;;;;;;4.30;3.22;;;;;;;10.98;100.00;101521.56;4988623;28;20383;-75
2023/06/15 01:02:12;;;;;;;6.70;3.88;;;;;;;10.96;100.00;101528.88;4956521;28;20018;-75
2023/06/15 01:04:39;;;;;;;4.03;2.83;;;;;;;10.94;100.00;101533.53;4988814;28;20027;-75
2023/06/15 01:07:10;;;;;;;6.80;3.75;;;;;;;10.88;100.00;101532.25;4972816;28;20018;-75
2023/06/15 01:09:40;;;;;;;4.43;3.47;;;;;;;10.90;100.00;101540.97;4989027;28;20037;-75
2023/06/15 01:12:07;;;;;;;4.30;2.53;;;;;;;10.86;100.00;101528.06;4988810;28;20015;-75
2023/06/15 01:14:35;;;;;;;6.40;2.92;;;;;;;10.86;100.00;101528.88;4990129;28;20037;-75
2023/06/15 01:17:05;;;;;;;7.93;3.33;;;;;;;10.82;100.00;101524.03;4988730;28;20042;-75
2023/06/15 01:19:39;;;;;;;4.97;3.40;;;;;;;10.79;100.00;101527.78;4988637;28;20045;-74
2023/06/15 01:22:19;;;;;;;7.97;2.90;;;;;;;10.77;100.00;101529.78;4988410;28;20479;-75
2023/06/15 01:24:57;;;;;;;5.72;3.58;;;;;;;10.75;100.00;101523.75;4972261;28;20497;-74
2023/06/15 01:27:24;;;;;;;5.78;3.60;;;;;;;10.77;100.00;101529.78;4988643;28;20031;-75
2023/06/15 01:29:52;;;;;;;5.05;3.38;;;;;;;10.77;100.00;101535.13;4972130;28;20474;-75
2023/06/15 01:32:19;;;;;;;8.35;3.60;;;;;;;10.70;100.00;101518.84;4988315;28;20634;-75
2023/06/15 01:34:45;;;;;;;3.97;2.97;;;;;;;10.74;100.00;101524.72;4972340;28;20058;-75
2023/06/15 01:37:11;;;;;;;4.07;3.30;;;;;;;10.76;100.00;101525.41;4988322;28;20042;-75
2023/06/15 01:39:39;;;;;;;6.50;3.40;;;;;;;10.72;100.00;101518.69;4972437;28;20022;-75
2023/06/15 01:42:05;;;;;;;4.55;3.13;;;;;;;10.74;100.00;101517.53;4986347;28;20463;-74
2023/06/15 01:44:31;;;;;;;4.72;3.53;;;;;;;10.74;100.00;101514.88;4972010;28;20050;-75
2023/06/15 01:46:57;;;;;;;7.03;3.17;;;;;;;10.80;100.00;101518.81;4988488;28;20116;-75
2023/06/15 01:49:23;;;;;;;6.27;3.67;;;;;;;10.82;100.00;101508.00;4988117;28;20343;-75
2023/06/15 01:51:48;;;;;;;10.02;3.70;;;;;;;10.78;100.00;101500.25;4988002;28;20525;-75
2023/06/15 01:54:14;;;;;;;4.67;3.07;;;;;;;10.74;100.00;101481.97;4988042;28;20026;-75
2023/06/15 01:56:39;;;;;;;5.50;3.30;;;;;;;10.74;100.00;101500.69;4988221;28;20034;-75
2023/06/15 01:59:05;;;;;;;9.50;3.42;;;;;;;10.73;100.00;101491.00;4971818;28;20059;-75
2023/06/15 02:01:30;;;;;;;5.80;3.30;;;;;;;10.68;100.00;101487.94;4988112;28;20031;-75
2023/06/15 02:03:55;;;;;;;6.70;3.57;;;;;;;10.61;100.00;101487.66;4989113;28;20073;-75
2023/06/15 02:06:21;;;;;;;6.93;2.70;;;;;;;10.63;100.00;101490.16;4987822;28;20041;-75
2023/06/15 02:08:50;;;;;;;5.95;3.10;;;;;;;10.60;100.00;101485.97;4971842;28;20514;-75
2023/06/15 02:11:18;;;;;;;5.90;3.92;;;;;;;10.63;100.00;101495.50;4989276;28;20038;-75
2023/06/15 02:13:43;;;;;;;4.50;3.00;;;;;;;10.58;100.00;101482.59;4987439;28;20022;-75
2023/06/15 02:16:09;;;;;;;6.57;3.93;;;;;;;10.60;100.00;101487.78;4987952;28;20041;-75
2023/06/15 02:18:37;;;;;;;6.80;3.20;;;;;;;10.56;100.00;101471.22;4971871;28;20026;-75
2023/06/15 02:21:03;;;;;;;6.25;3.13;;;;;;;10.49;100.00;101460.28;4987537;28;20034;-75
2023/06/15 02:23:28;;;;;;;5.87;3.10;;;;;;;10.47;100.00;101469.44;4987736;28;20029;-75
2023/06/15 02:25:53;;;;;;;5.93;2.90;;;;;;;10.44;100.00;101454.53;4971424;28;20034;-75
2023/06/15 02:28:19;;;;;;;9.43;3.60;;;;;;;10.40;100.00;101453.13;4988000;28;20105;-74
2023/06/15 02:30:44;;;;;;;6.50;3.40;;;;;;;10.39;100.00;101456.78;4987872;28;20061;-75
2023/06/15 02:33:10;;;;;;;5.53;3.70;;;;;;;10.38;100.00;101455.09;4971729;28;20019;-75
2023/06/15 02:35:36;;;;;;;6.75;3.45;;;;;;;10.30;100.00;101453.16;4987707;28;20034;-76
2023/06/15 02:38:01;;;;;;;4.78;3.47;;;;;;;10.28;100.00;101448.94;4987779;28;20034;-75
2023/06/15 02:40:27;;;;;;;6.30;3.85;;;;;;;10.28;100.00;101454.25;4987596;28;20034;-75
2023/06/15 02:42:53;;;;;;;;;;;;;;;10.29;100.00;101455.97;4976388;28;20026;-75
2023/06/15 02:45:19;;;;;;;6.72;3.45;;;;;;;10.26;100.00;101457.06;4988968;28;19920;-75
2023/06/15 02:47:44;;;;;;;5.70;3.80;;;;;;;10.23;100.00;101468.03;4987860;28;20029;-75
2023/06/15 02:50:10;;;;;;;4.80;3.33;;;;;;;10.21;100.00;101469.13;4987509;28;20105;-75
2023/06/15 02:52:41;;;;;;;6.47;3.42;;;;;;;10.19;100.00;101468.47;4987566;28;20273;-74
2023/06/15 02:55:13;;;;;;;7.40;3.17;;;;;;;10.19;100.00;101476.47;4987582;28;20064;-75
2023/06/15 02:57:39;;;;;;;4.32;2.85;;;;;;;10.20;100.00;101481.66;4987711;28;20482;-75
2023/06/15 03:00:27;;;;;;;4.82;3.40;;;;;;;10.21;100.00;101479.81;4987874;28;20030;-75
2023/06/15 03:03:00;;;;;;;5.05;3.22;;;;;;;10.22;100.00;101487.69;4987319;28;20499;-76
2023/06/15 03:05:32;;;;;;;5.40;3.28;;;;;;;10.27;100.00;101490.75;4986575;28;20073;-75
2023/06/15 03:07:58;;;;;;;36.97;4.57;;;;;;;10.26;100.00;101497.09;4987448;28;20518;-75
2023/06/15 03:10:32;;;;;;;6.55;3.50;;;;;;;10.32;100.00;101498.38;4986312;28;20014;-75
2023/06/15 03:12:58;;;;;;;5.03;3.60;;;;;;;10.38;100.00;101497.81;4995502;28;20030;-75
2023/06/15 03:15:25;;;;;;;5.93;3.13;;;;;;;10.38;100.00;101503.16;4987101;28;20028;-75
2023/06/15 03:17:51;;;;;;;5.90;3.15;;;;;;;10.38;100.00;101500.47;5003598;28;20558;-75
2023/06/15 03:20:21;;;;;;;4.22;3.40;;;;;;;10.39;100.00;101504.81;4986811;28;20018;-75
2023/06/15 03:22:48;;;;;;;5.22;2.95;;;;;;;10.38;100.00;101510.34;4988844;28;20118;-75
2023/06/15 03:25:14;;;;;;;8.45;3.50;;;;;;;10.38;100.00;101499.66;4982680;28;20045;-75
2023/06/15 03:27:40;;;;;;;6.50;3.93;;;;;;;10.46;100.00;101515.78;4991089;28;20116;-75
2023/06/15 03:30:10;;;;;;;6.45;3.13;;;;;;;10.54;100.00;101524.78;4974508;28;20025;-75
2023/06/15 03:32:37;;;;;;;5.63;3.63;;;;;;;10.60;100.00;101517.16;4992032;28;20030;-76
2023/06/15 03:35:03;;;;;;;;;;;;;;;10.65;100.00;101515.75;4990929;28;20084;-75
2023/06/15 03:37:28;;;;;;;5.97;3.30;;;;;;;10.69;100.00;101505.63;4987277;28;19913;-75
2023/06/15 03:39:54;;;;;;;5.60;3.93;;;;;;;10.76;100.00;101496.03;5005065;28;20023;-75
2023/06/15 03:42:19;;;;;;;6.17;3.20;;;;;;;10.80;100.00;101483.25;4990342;28;20030;-75
2023/06/15 03:44:45;;;;;;;6.55;4.18;;;;;;;10.90;100.00;101492.06;4990270;28;20296;-74
2023/06/15 03:47:11;;;;;;;6.07;3.60;;;;;;;10.95;100.00;101493.28;4991789;28;20034;-75
2023/06/15 03:49:37;;;;;;;4.20;3.10;;;;;;;11.03;100.00;101495.25;4991313;28;20038;-75
2023/06/15 03:52:03;;;;;;;5.90;3.60;;;;;;;11.10;100.00;101488.31;4982390;28;20030;-75
2023/06/15 03:54:28;;;;;;;6.18;3.28;;;;;;;11.18;100.00;101490.25;4990235;28;20026;-75
2023/06/15 03:56:53;;;;;;;4.73;3.43;;;;;;;11.27;100.00;101502.72;4990552;28;20018;-75
2023/06/15 03:59:19;;;;;;;6.00;3.60;;;;;;;11.34;100.00;101508.31;4990463;28;20034;-75
2023/06/15 04:01:44;;;;;;;5.63;3.37;;;;;;;11.30;100.00;101515.78;4990132;28;20030;-75
2023/06/15 04:04:14;;;;;;;6.07;3.63;;;;;;;11.37;100.00;101508.84;4973581;28;20027;-75
2023/06/15 04:06:46;;;;;;;5.82;3.28;;;;;;;11.48;100.00;101504.31;4974097;28;20025;-76
2023/06/15 04:09:14;;;;;;;5.38;4.22;;;;;;;11.58;100.00;101497.06;4974559;28;20023;-75
2023/06/15 04:11:40;;;;;;;5.35;3.55;;;;;;;11.68;100.00;101495.16;4973883;28;20378;-75
2023/06/15 04:14:06;;;;;;;5.00;3.80;;;;;;;11.77;100.00;101496.91;4989804;28;20034;-75
2023/06/15 04:16:31;;;;;;;4.47;3.80;;;;;;;11.84;100.00;101503.34;4990260;28;20066;-75
2023/06/15 04:18:57;;;;;;;9.27;3.50;;;;;;;12.05;100.00;101515.59;4989702;28;20034;-75
2023/06/15 04:21:22;;;;;;;8.33;4.47;;;;;;;12.16;100.00;101515.38;4990190;28;20022;-75
2023/06/15 04:23:48;;;;;;;6.55;3.38;;;;;;;12.22;100.00;101517.44;4981453;28;20030;-75
2023/06/15 04:26:13;;;;;;;8.33;4.13;;;;;;;12.18;100.00;101515.25;4989703;28;20026;-75
2023/06/15 04:28:39;;;;;;;5.47;4.23;;;;;;;12.24;100.00;101526.19;4988753;28;20034;-75
2023/06/15 04:31:10;;;;;;;7.60;3.40;;;;;;;12.34;100.00;101520.72;4989898;28;20434;-75
2023/06/15 04:33:37;;;;;;;5.72;3.05;;;;;;;12.45;100.00;101527.66;4989003;28;20494;-75
2023/06/15 04:36:03;;;;;;;6.22;3.58;;;;;;;12.52;100.00;101530.56;4973427;28;20034;-75
2023/06/15 04:38:29;;;;;;;4.78;3.33;;;;;;;12.52;100.00;101523.34;4989716;28;20033;-75
2023/06/15 04:40:56;;;;;;;6.88;3.97;;;;;;;12.54;100.00;101536.59;4979576;28;20438;-75
2023/06/15 04:43:22;;;;;;;4.00;3.20;;;;;;;12.64;100.00;101556.94;4975448;28;20034;-76
2023/06/15 04:45:47;;;;;;;8.60;4.47;;;;;;;12.78;100.00;101555.53;4973611;28;20475;-76
2023/06/15 04:48:19;;;;;;;7.45;3.70;;;;;;;12.91;100.00;101547.06;4989542;28;20410;-75
2023/06/15 04:50:48;;;;;;;5.13;3.70;;;;;;;12.96;100.00;101533.19;4989471;28;20042;-75
2023/06/15 04:53:16;;;;;;;8.30;3.70;;;;;;;13.18;100.00;101547.88;4989358;28;20548;-75
2023/06/15 04:55:41;;;;;;;7.85;4.55;;;;;;;13.32;100.00;101535.75;4989503;28;20049;-76
2023/06/15 04:58:07;;;;;;;9.80;4.47;;;;;;;13.46;100.00;101537.81;4989528;28;20474;-76
2023/06/15 05:00:33;;;;;;;;;;;;;;;13.62;100.00;101543.22;4989569;28;20034;-75
2023/06/15 05:03:00;;;;;;;9.70;4.22;;;;;;;13.75;100.00;101553.50;4989083;28;19914;-76
2023/06/15 05:05:25;;;;;;;4.95;3.70;;;;;;;13.85;100.00;101538.09;4989111;28;20114;-76
2023/06/15 05:07:52;;;;;;;;;;;;;;;13.99;100.00;101536.59;4971234;28;20560;-76
2023/06/15 05:10:17;;;;;;;;;;;;;;;14.17;100.00;101546.38;4988045;28;20004;-75
2023/06/15 05:12:42;;;;;;;6.90;3.13;;;;;;;14.26;100.00;101534.63;4997627;28;19910;-76
2023/06/15 05:15:08;;;;;;;9.63;4.10;;;;;;;14.39;100.00;101532.25;4977898;28;20035;-76
2023/06/15 05:17:35;;;;;;;5.45;3.47;;;;;;;14.50;100.00;101520.34;4969085;28;20023;-76
2023/06/15 05:20:00;;;;;;;5.43;3.50;;;;;;;14.55;100.00;101513.47;4996246;28;20527;-76
2023/06/15 05:22:26;;;;;;;4.40;3.70;;;;;;;14.62;100.00;101508.25;4989050;28;20505;-75
2023/06/15 05:24:51;;;;;;;9.17;3.80;;;;;;;14.66;100.00;101501.53;4984115;28;20122;-76
2023/06/15 05:27:17;;;;;;;11.80;3.80;;;;;;;14.80;100.00;101509.88;4980914;28;20450;-76
2023/06/15 05:29:46;;;;;;;7.32;3.78;;;;;;;15.36;100.00;101519.63;4988586;28;20133;-76
2023/06/15 05:32:12;;;;;;;7.53;4.10;;;;;;;15.56;100.00;101462.69;4983401;28;20053;-76
2023/06/15 05:34:37;;;;;;;6.80;3.97;;;;;;;15.52;100.00;101373.41;4988796;28;20057;-76
2023/06/15 05:37:03;;;;;;;7.27;3.70;;;;;;;15.69;100.00;101357.97;4988227;28;20062;-76
2023/06/15 05:39:33;;;;;;;4.72;3.53;;;;;;;15.75;100.00;101316.88;4988540;28;20533;-76
2023/06/15 05:41:59;;;;;;;7.10;3.63;;;;;;;15.79;100.00;101330.81;4972444;28;20038;-77
2023/06/15 05:44:24;;;;;;;8.95;4.05;;;;;;;15.98;100.00;101315.97;4988979;28;20479;-75
2023/06/15 05:46:52;;;;;;;13.48;3.92;;;;;;;16.24;100.00;101310.13;4992785;28;20041;-76
2023/06/15 05:49:18;;;;;;;12.35;4.68;;;;;;;16.33;100.00;101292.84;4988988;28;20117;-76
2023/06/15 05:51:44;;;;;;;;;;;;;;;16.25;100.00;101156.41;4986075;28;20420;-75
2023/06/15 05:54:10;;;;;;;;;;;;;;;16.53;100.00;101196.09;4973055;28;19910;-76
2023/06/15 05:56:35;;;;;;;5.03;3.58;;;;;;;16.86;100.00;101198.31;4989014;28;19921;-76
2023/06/15 05:59:02;;;;;;;7.18;3.58;;;;;;;17.69;100.00;101180.47;4979688;28;20034;-77
2023/06/15 06:01:27;;;;;;;7.75;3.45;;;;;;;17.82;100.00;100993.41;4988745;28;20041;-76
2023/06/15 06:03:53;;;;;;;7.47;3.67;;;;;;;18.28;100.00;101016.94;4988063;28;20150;-76
2023/06/15 06:06:18;;;;;;;6.33;3.13;;;;;;;19.62;100.00;101001.31;4972274;28;20033;-76
2023/06/15 06:08:43;;;;;;;9.33;3.53;;;;;;;19.95;100.00;100745.63;4989414;28;20526;-77
2023/06/15 06:11:09;;;;;;;8.40;3.37;;;;;;;19.90;100.00;100583.75;4986427;28;20182;-75
2023/06/15 06:14:01;;;;;;;5.82;3.05;;;;;;;19.37;100.00;100555.38;4975093;28;20057;-77
2023/06/15 06:16:27;;;;;;;7.97;3.45;;;;;;;19.79;100.00;100562.84;4987970;28;20026;-77
2023/06/15 06:18:52;;;;;;;7.63;3.13;;;;;;;19.50;100.00;100554.41;4971892;28;20033;-77
2023/06/15 06:21:18;;;;;;;7.10;3.17;;;;;;;19.03;100.00;100531.59;4987493;28;20026;-77
2023/06/15 06:23:44;;;;;;;5.10;3.15;;;;;;;18.93;100.00;100651.94;4971625;28;20033;-76
2023/06/15 06:26:10;;;;;;;10.30;3.90;;;;;;;18.89;100.00;100718.34;4984640;28;20039;-77
2023/06/15 06:28:35;;;;;;;;;;;;;;;20.63;100.00;100650.53;4968340;28;20018;-76
2023/06/15 06:31:01;;;;;;;5.75;3.08;;;;;;;22.01;92.62;100301.47;4971721;28;19924;-77
2023/06/15 06:33:26;;;;;;;6.00;3.03;;;;;;;21.79;83.46;99837.66;4988058;28;20030;-76
2023/06/15 06:35:51;;;;;;;5.97;2.90;;;;;;;21.75;83.27;100009.56;4989014;28;20487;-77
2023/06/15 06:38:17;;;;;;;8.03;3.10;;;;;;;20.51;83.68;99979.88;4988764;28;20022;-76
2023/06/15 06:40:42;;;;;;;5.77;3.17;;;;;;;19.93;87.02;100211.31;4988108;28;20030;-77
2023/06/15 06:43:07;;;;;;;8.80;3.70;;;;;;;19.81;88.11;100317.78;4989252;28;20395;-77
2023/06/15 06:45:33;;;;;;;4.57;3.27;;;;;;;19.33;86.82;100212.31;4987768;28;20088;-76
2023/06/15 06:47:58;;;;;;;8.80;3.53;;;;;;;19.28;89.28;100426.00;4989173;28;20030;-75
2023/06/15 06:50:24;;;;;;;7.40;2.50;;;;;;;19.98;89.96;100618.66;4987876;28;20026;-77
2023/06/15 06:52:49;;;;;;;5.13;2.93;;;;;;;19.96;86.37;100355.22;4971524;28;20030;-76
2023/06/15 06:55:15;;;;;;;7.83;3.13;;;;;;;20.15;86.62;100448.09;4987830;28;20049;-76
2023/06/15 06:57:40;;;;;;;6.68;3.22;;;;;;;20.02;86.63;100481.66;4990449;28;20025;-75
2023/06/15 07:00:07;;;;;;;6.27;3.27;;;;;;;20.94;85.36;100602.47;4991282;28;20058;-77
2023/06/15 07:02:32;;;;;;;7.57;3.20;;;;;;;22.31;82.70;100650.06;4991214;28;20037;-77
2023/06/15 07:04:58;;;;;;;8.15;3.35;;;;;;;23.56;76.51;100382.13;4991345;28;20026;-77
2023/06/15 07:07:23;;;;;;;8.10;3.33;;;;;;;23.80;72.00;100116.34;4993268;28;20057;-77
2023/06/15 07:09:49;;;;;;;5.07;3.80;;;;;;;23.25;70.50;99909.84;4994060;28;20026;-77
2023/06/15 07:12:14;;;;;;;8.03;3.80;;;;;;;23.33;71.97;100220.63;4992291;28;20280;-77
2023/06/15 07:14:40;;;;;;;5.18;2.83;;;;;;;23.75;69.59;100112.78;4993136;28;20831;-77
2023/06/15 07:17:05;;;;;;;8.13;3.00;;;;;;;22.96;68.67;99953.81;4991386;28;20475;-77
2023/06/15 07:19:31;;;;;;;3.90;2.72;;;;;;;22.82;69.98;100105.03;4993362;28;20030;-77
2023/06/15 07:21:56;;;;;;;6.30;3.30;;;;;;;22.83;70.10;100182.84;4991589;28;20022;-77
2023/06/15 07:24:21;;;;;;;8.03;3.20;;;;;;;23.11;70.17;100255.31;4992846;28;20113;-77
2023/06/15 07:26:47;;;;;;;6.20;2.97;;;;;;;22.73;68.82;100091.06;4991751;28;20070;-77
2023/06/15 07:29:12;;;;;;;5.13;3.20;;;;;;;21.82;69.72;100029.22;4992719;28;20034;-77
2023/06/15 07:31:38;;;;;;;3.57;2.63;;;;;;;22.43;69.33;100200.38;4991267;28;20054;-77
2023/06/15 07:34:03;;;;;;;5.65;2.80;;;;;;;22.83;69.02;100267.22;4991209;28;20292;-77
2023/06/15 07:36:29;;;;;;;7.35;3.05;;;;;;;22.81;66.03;99970.06;4990799;28;20080;-76
2023/06/15 07:38:54;;;;;;;8.17;2.57;;;;;;;22.81;65.17;99942.84;4991944;28;20049;-76
2023/06/15 07:41:20;;;;;;;3.73;2.80;;;;;;;22.90;63.75;99862.34;4990547;28;20279;-77
2023/06/15 07:43:45;;;;;;;5.97;3.08;;;;;;;23.73;60.28;99733.44;4990889;28;20026;-77
2023/06/15 07:46:11;;;;;;;4.30;3.10;;;;;;;23.50;59.92;99651.16;4990902;28;20026;-77
2023/06/15 07:48:36;;;;;;;6.05;2.95;;;;;;;24.45;59.12;99895.03;4992091;28;20037;-77
2023/06/15 07:51:02;;;;;;;4.53;2.80;;;;;;;24.90;56.86;99745.91;4974337;28;20034;-77
2023/06/15 07:53:27;;;;;;;5.15;2.95;;;;;;;24.76;56.53;99721.13;4990431;28;20038;-77
2023/06/15 07:55:53;;;;;;;3.80;2.40;;;;;;;24.45;56.69;99619.53;4975038;28;20066;-78
2023/06/15 07:58:19;;;;;;;7.80;2.75;;;;;;;23.79;57.21;99596.13;4992254;28;20034;-77
2023/06/15 08:00:44;;;;;;;7.23;3.30;;;;;;;23.69;57.29;99618.69;4991802;28;20156;-76
2023/06/15 08:03:10;;;;;;;4.80;2.40;;;;;;;22.65;58.07;99463.16;4991872;28;20839;-77
2023/06/15 08:05:35;;;;;;;5.85;3.20;;;;;;;22.10;58.14;99378.56;4991846;28;20034;-77
2023/06/15 08:08:00;;;;;;;4.83;2.77;;;;;;;21.94;58.79;99453.84;4990100;28;20046;-77
2023/06/15 08:10:26;;;;;;;8.83;2.63;;;;;;;21.72;60.72;99633.31;4990224;28;20023;-77
2023/06/15 08:12:51;;;;;;;8.17;2.70;;;;;;;21.36;60.90;99591.53;4989877;28;20064;-77
2023/06/15 08:15:17;;;;;;;5.57;2.80;;;;;;;21.30;60.80;99609.69;4990076;28;20532;-77
2023/06/15 08:17:42;;;;;;;10.05;2.83;;;;;;;21.74;60.57;99698.25;4990618;28;20065;-77
2023/06/15 08:20:09;;;;;;;8.30;2.83;;;;;;;21.69;59.92;99609.41;4982202;28;20372;-77
2023/06/15 08:22:35;;;;;;;7.95;3.00;;;;;;;21.38;59.66;99484.31;4991224;28;20463;-76
2023/06/15 08:25:00;;;;;;;4.28;3.08;;;;;;;21.72;60.52;99761.00;4990321;28;20022;-77
2023/06/15 08:27:26;;;;;;;5.53;2.53;;;;;;;21.85;60.81;99858.38;4990365;28;20045;-77
2023/06/15 08:29:51;;;;;;;5.27;2.90;;;;;;;22.26;60.82;99986.47;4990538;28;20037;-77
2023/06/15 08:32:16;;;;;;;3.00;2.33;;;;;;;22.77;60.01;100024.97;4990154;28;20088;-77
2023/06/15 08:34:42;;;;;;;5.57;2.30;;;;;;;23.60;57.05;99847.31;4991588;28;20056;-76
2023/06/15 08:37:09;;;;;;;11.80;2.75;;;;;;;23.85;57.08;99899.41;4974565;28;20281;-77
2023/06/15 08:39:34;;;;;;;;;;;;;;;24.32;56.16;99940.06;4991092;28;20029;-77
2023/06/15 08:42:02;;;;;;;8.57;2.90;;;;;;;24.47;54.42;99742.00;4990444;28;19918;-77
2023/06/15 08:44:30;;;;;;;8.35;2.90;;;;;;;25.24;52.55;99734.25;4990261;28;20526;-76
2023/06/15 08:46:56;;;;;;;3.38;2.53;;;;;;;25.59;51.41;99670.31;4974247;28;20538;-77
2023/06/15 08:49:24;;;;;;;5.90;2.70;;;;;;;25.28;50.49;99464.88;4973901;28;20066;-77
2023/06/15 08:51:51;;;;;;;6.15;2.80;;;;;;;25.63;50.47;99581.16;4973865;28;20030;-77
2023/06/15 08:54:18;;;;;;;6.22;2.92;;;;;;;25.93;50.71;99720.56;4989623;28;20022;-76
2023/06/15 08:56:44;;;;;;;6.05;2.97;;;;;;;25.60;50.46;99587.19;4989590;28;20038;-77
2023/06/15 08:59:09;;;;;;;6.07;2.57;;;;;;;25.51;50.23;99514.34;4990735;28;20029;-78
2023/06/15 09:01:40;;;;;;;6.78;3.00;;;;;;;24.74;49.31;99116.69;4989801;28;20097;-77
2023/06/15 09:04:06;;;;;;;9.10;3.10;;;;;;;23.67;51.18;99108.72;4990021;28;20498;-77
2023/06/15 09:06:32;;;;;;;14.52;3.38;;;;;;;23.82;52.45;99410.25;4989682;28;20093;-76
2023/06/15 09:08:57;;;;;;;6.40;3.47;;;;;;;23.38;51.83;99212.19;4990639;28;20450;-77
2023/06/15 09:11:23;;;;;;;8.80;2.50;;;;;;;23.15;51.60;99159.28;4989149;28;20027;-76
2023/06/15 09:13:50;;;;;;;8.18;3.22;;;;;;;22.77;53.23;99284.13;4989921;28;20377;-76
2023/06/15 09:16:15;;;;;;;6.10;3.47;;;;;;;22.69;52.38;99143.25;4989959;28;20050;-76
2023/06/15 09:18:53;;;;;;;7.32;4.15;;;;;;;21.98;52.76;98948.75;4989902;28;20872;-75
2023/06/15 09:21:21;;;;;;;5.80;2.55;;;;;;;22.09;53.32;99146.75;4989407;28;20054;-75
2023/06/15 09:23:47;;;;;;;6.43;3.10;;;;;;;21.95;54.34;99243.53;4988353;28;20101;-75
2023/06/15 09:26:23;;;;;;;3.17;2.80;;;;;;;22.00;54.60;99333.19;4989719;28;20036;-76
2023/06/15 09:28:49;;;;;;;6.18;2.88;;;;;;;21.99;54.29;99268.28;4985811;28;20042;-76
2023/06/15 09:31:31;;;;;;;5.95;2.97;;;;;;;21.93;53.45;99162.28;4988595;28;20021;-76
2023/06/15 09:34:05;;;;;;;5.53;3.25;;;;;;;22.09;53.31;99233.72;4970711;28;20035;-76
2023/06/15 09:36:48;;;;;;;6.60;2.90;;;;;;;22.13;53.43;99259.28;4989910;28;20034;-75
2023/06/15 09:39:15;;;;;;;5.57;3.25;;;;;;;22.70;53.82;99499.31;4982445;28;20093;-75
2023/06/15 09:41:56;;;;;;;5.30;2.50;;;;;;;23.29;52.78;99568.69;4989949;28;20029;-77
2023/06/15 09:44:22;;;;;;;5.82;2.80;;;;;;;24.09;51.75;99682.41;4982340;28;20060;-77
2023/06/15 09:46:50;;;;;;;8.43;3.30;;;;;;;24.74;49.19;99447.69;4972493;28;20038;-77
2023/06/15 09:49:23;;;;;;;8.52;3.10;;;;;;;25.35;48.69;99590.19;4973500;28;20034;-77
2023/06/15 09:51:50;;;;;;;6.00;3.60;;;;;;;25.61;48.17;99572.41;4988149;28;20045;-76
2023/06/15 09:54:24;;;;;;;9.57;3.40;;;;;;;24.81;46.97;99085.19;4990113;28;20026;-77
2023/06/15 09:56:51;;;;;;;5.50;2.97;;;;;;;24.65;45.66;98873.72;4972548;28;20030;-77
2023/06/15 09:59:18;;;;;;;4.72;3.08;;;;;;;24.71;44.96;98787.13;4972399;28;20583;-76
2023/06/15 10:01:47;;;;;;;4.28;2.80;;;;;;;25.54;44.85;99080.13;4971879;28;20035;-76
2023/06/15 10:04:15;;;;;;;9.95;3.60;;;;;;;25.13;44.11;98766.88;4971810;28;20695;-76
2023/06/15 10:06:44;;;;;;;4.88;3.20;;;;;;;25.25;44.80;98977.44;4955831;28;20089;-75
2023/06/15 10:09:11;;;;;;;4.20;2.47;;;;;;;25.18;44.72;98916.94;4988024;28;20514;-76
2023/06/15 10:11:39;;;;;;;5.45;3.03;;;;;;;25.25;44.66;98993.00;4989261;28;20076;-76
2023/06/15 10:14:14;;;;;;;4.40;2.83;;;;;;;25.47;43.99;98981.38;4971207;28;20018;-77
2023/06/15 10:16:41;;;;;;;6.43;2.78;;;;;;;26.38;43.40;99237.66;4989263;28;20034;-75
2023/06/15 10:19:11;;;;;;;4.15;2.42;;;;;;;26.91;41.87;99113.94;4988917;28;20106;-76
2023/06/15 10:21:39;;;;;;;5.25;2.70;;;;;;;27.48;40.73;99083.19;4987955;28;20121;-77
2023/06/15 10:24:12;;;;;;;5.20;2.88;;;;;;;25.64;42.07;98581.84;4987298;28;20101;-77
2023/06/15 10:26:39;;;;;;;5.45;2.80;;;;;;;24.78;43.23;98545.47;4989248;28;20634;-75
2023/06/15 10:29:12;;;;;;;4.68;3.22;;;;;;;24.23;44.33;98636.41;4989066;28;20474;-76
2023/06/15 10:31:45;;;;;;;7.07;3.78;;;;;;;25.12;45.56;99180.25;4988860;28;20057;-76
2023/06/15 10:34:38;;;;;;;6.07;3.20;;;;;;;25.15;45.63;99211.63;4984064;28;20662;-75
2023/06/15 10:37:12;;;;;;;3.72;2.63;;;;;;;24.77;45.83;99053.31;4992922;28;20046;-76
2023/06/15 10:39:44;;;;;;;4.22;3.08;;;;;;;24.36;47.16;99109.28;4991527;28;20054;-76
2023/06/15 10:42:14;;;;;;;5.03;3.47;;;;;;;24.47;47.41;99190.97;4992496;28;20058;-75
2023/06/15 10:44:40;;;;;;;5.93;3.78;;;;;;;24.31;48.47;99323.97;4991172;28;20023;-75
2023/06/15 10:47:06;;;;;;;8.32;3.53;;;;;;;24.47;49.33;99491.88;4983711;28;20025;-75
2023/06/15 10:49:32;;;;;;;6.93;3.90;;;;;;;24.58;48.83;99476.22;4991481;28;20109;-75
2023/06/15 10:51:57;;;;;;;7.88;3.30;;;;;;;24.92;50.29;99809.22;4975224;28;20531;-75
2023/06/15 10:54:26;;;;;;;6.72;3.92;;;;;;;25.17;50.11;99832.03;4974443;28;20278;-75
2023/06/15 10:56:57;;;;;;;5.57;3.92;;;;;;;25.04;51.06;99868.97;4959073;28;20029;-75
2023/06/15 10:59:46;;;;;;;6.50;3.63;;;;;;;25.40;51.95;100099.16;4991925;28;20038;-75
2023/06/15 11:02:32;;;;;;;5.68;3.30;;;;;;;25.76;51.66;100183.78;4992332;28;20045;-75
2023/06/15 11:05:08;;;;;;;8.32;4.03;;;;;;;26.91;50.32;100253.13;4989772;28;20552;-75
2023/06/15 11:07:40;;;;;;;7.57;3.70;;;;;;;27.00;50.18;100205.97;4991305;28;20062;-76
2023/06/15 11:10:14;;;;;;;7.45;3.90;;;;;;;26.52;51.50;100218.25;4990830;28;20049;-76
2023/06/15 11:12:42;;;;;;;6.78;4.05;;;;;;;26.74;50.87;100170.53;4974766;28;20041;-76
2023/06/15 11:15:09;;;;;;;5.75;4.32;;;;;;;27.41;49.82;100261.28;4990704;28;20018;-76
2023/06/15 11:17:56;;;;;;;7.78;4.28;;;;;;;26.71;49.29;99920.06;4990931;28;20053;-77
2023/06/15 11:20:51;;;;;;;11.27;4.07;;;;;;;27.62;49.74;100294.03;4989323;28;20033;-77
2023/06/15 11:23:19;;;;;;;5.85;4.00;;;;;;;27.28;49.49;100095.59;4971968;28;20046;-74
2023/06/15 11:25:46;;;;;;;7.80;4.18;;;;;;;27.61;49.69;100270.47;4991791;28;20018;-77
2023/06/15 11:28:15;;;;;;;6.85;3.90;;;;;;;26.76;50.49;100077.97;4990794;28;20031;-75
2023/06/15 11:30:41;;;;;;;6.72;4.20;;;;;;;26.65;50.27;99920.38;4992384;28;20015;-75